createdAt,value
2022-10-01T00:01:49.849Z,45.70
2022-10-01T00:03:51.470Z,46.17
2022-10-01T00:06:20.443Z,47.33
2022-10-01T00:08:22.169Z,34.93
2022-10-01T00:10:24.013Z,44.05
2022-10-01T00:12:25.571Z,42.63
2022-10-01T00:14:27.968Z,48.90
2022-10-01T00:16:30.938Z,47.75
2022-10-01T00:18:35.682Z,42.67
2022-10-01T00:20:43.479Z,43.38
2022-10-01T00:22:45.040Z,38.55
2022-10-01T00:24:47.353Z,40.97
2022-10-01T00:26:48.876Z,40.65
2022-10-01T00:28:54.837Z,39.88
2022-10-01T00:30:56.355Z,42.30
2022-10-01T00:32:57.910Z,48.53
2022-10-01T00:35:00.488Z,42.20
2022-10-01T00:37:02.440Z,43.08
2022-10-01T00:39:04.029Z,43.90
2022-10-01T00:41:05.667Z,45.35
2022-10-01T00:43:28.420Z,43.67
2022-10-01T00:45:30.224Z,45.30
2022-10-01T00:48:04.024Z,50.58
2022-10-01T00:50:09.877Z,44.78
2022-10-01T00:52:14.934Z,46.42
2022-10-01T00:54:22.940Z,43.30
2022-10-01T00:56:25.076Z,47.20
2022-10-01T00:58:27.111Z,46.63
2022-10-01T01:00:28.985Z,48.70
2022-10-01T01:02:30.693Z,46.92
2022-10-01T01:04:32.680Z,46.53
2022-10-01T01:06:34.170Z,46.05
2022-10-01T01:08:35.797Z,44.58
2022-10-01T01:11:01.718Z,45.35
2022-10-01T01:13:10.915Z,45.55
2022-10-01T01:15:21.663Z,52.47
2022-10-01T01:17:35.748Z,61.83
2022-10-01T01:19:43.418Z,49.63
2022-10-01T01:21:48.184Z,47.13
2022-10-01T01:24:08.551Z,46.85
2022-10-01T01:26:34.009Z,47.58
2022-10-01T01:28:39.740Z,46.95
2022-10-01T01:30:41.546Z,47.53
2022-10-01T01:32:56.669Z,48.17
2022-10-01T01:35:01.059Z,47.20
2022-10-01T01:37:11.986Z,46.30
2022-10-01T01:39:14.969Z,50.63
2022-10-01T01:41:19.063Z,48.92
2022-10-01T01:43:24.450Z,48.22
2022-10-01T01:45:28.830Z,47.65
2022-10-01T01:47:30.547Z,51.35
2022-10-01T01:49:32.454Z,50.67
2022-10-01T01:51:51.477Z,48.78
2022-10-01T01:53:53.927Z,52.83
2022-10-01T01:55:56.969Z,52.00
2022-10-01T01:57:58.748Z,50.10
2022-10-01T02:00:00.537Z,48.90
2022-10-01T02:02:02.418Z,48.97
2022-10-01T02:04:06.891Z,49.45
2022-10-01T02:06:21.324Z,48.97
2022-10-01T02:08:30.415Z,50.95
2022-10-01T02:10:49.938Z,35.45
2022-10-01T02:13:01.605Z,44.65
2022-10-01T02:15:37.114Z,59.13
2022-10-01T02:17:59.704Z,57.22
2022-10-01T02:20:11.151Z,49.00
2022-10-01T02:22:18.225Z,47.55
2022-10-01T02:24:31.878Z,48.33
2022-10-01T02:26:36.146Z,47.67
2022-10-01T02:28:38.717Z,45.70
2022-10-01T02:30:41.774Z,49.53
2022-10-01T02:32:44.962Z,52.45
2022-10-01T02:34:47.751Z,56.80
2022-10-01T02:36:50.013Z,54.60
2022-10-01T02:38:52.498Z,54.40
2022-10-01T02:40:57.643Z,50.00
2022-10-01T02:43:03.918Z,49.55
2022-10-01T02:45:06.112Z,48.78
2022-10-01T02:47:12.192Z,50.45
2022-10-01T02:49:15.114Z,48.80
2022-10-01T02:51:29.579Z,50.38
2022-10-01T02:53:47.308Z,47.17
2022-10-01T02:55:50.018Z,48.95
2022-10-01T02:57:51.573Z,49.00
2022-10-01T02:59:57.754Z,48.10
2022-10-01T03:01:59.456Z,49.33
2022-10-01T03:04:01.902Z,52.65
2022-10-01T03:06:03.433Z,53.58
2022-10-01T03:08:04.948Z,52.45
2022-10-01T03:10:08.525Z,52.55
2022-10-01T03:12:10.938Z,52.22
2022-10-01T03:14:12.443Z,51.33
2022-10-01T03:16:14.121Z,50.90
2022-10-01T03:18:15.657Z,50.47
2022-10-01T03:20:17.244Z,52.33
2022-10-01T03:22:22.674Z,51.30
2022-10-01T03:24:24.397Z,52.53
2022-10-01T03:26:25.900Z,58.08
2022-10-01T03:28:27.485Z,55.80
2022-10-01T03:30:30.386Z,54.97
2022-10-01T03:32:32.905Z,52.88
2022-10-01T03:34:34.439Z,54.97
2022-10-01T03:36:35.967Z,53.85
2022-10-01T03:38:37.506Z,54.33
2022-10-01T03:40:39.208Z,53.20
2022-10-01T03:42:40.712Z,53.63
2022-10-01T03:44:42.722Z,53.80
2022-10-01T03:46:44.484Z,60.47
2022-10-01T03:48:46.005Z,57.00
2022-10-01T03:50:55.403Z,55.65
2022-10-01T03:52:57.124Z,53.15
2022-10-01T03:54:58.641Z,55.22
2022-10-01T03:57:00.156Z,54.20
2022-10-01T03:59:01.988Z,55.05
2022-10-01T04:01:03.611Z,54.42
2022-10-01T04:03:05.278Z,56.58
2022-10-01T04:05:07.162Z,58.05
2022-10-01T04:07:08.693Z,53.67
2022-10-01T04:09:10.193Z,54.72
2022-10-01T04:11:12.068Z,52.28
2022-10-01T04:13:13.612Z,61.42
2022-10-01T04:15:16.513Z,54.00
2022-10-01T04:17:18.640Z,54.13
2022-10-01T04:19:20.523Z,51.42
2022-10-01T04:21:22.035Z,52.53
2022-10-01T04:23:24.247Z,58.42
2022-10-01T04:25:26.244Z,56.45
2022-10-01T04:27:27.807Z,55.83
2022-10-01T04:29:29.367Z,60.25
2022-10-01T04:31:35.119Z,56.90
2022-10-01T04:33:37.172Z,59.53
2022-10-01T04:35:40.168Z,121.28
2022-10-01T04:37:41.725Z,107.78
2022-10-01T04:39:43.313Z,87.38
2022-10-01T04:41:44.939Z,84.63
2022-10-01T04:43:46.630Z,86.28
2022-10-01T04:45:48.150Z,74.47
2022-10-01T04:47:54.361Z,68.18
2022-10-01T04:49:55.865Z,68.78
2022-10-01T04:51:57.452Z,56.85
2022-10-01T04:53:58.976Z,57.08
2022-10-01T04:56:00.684Z,54.30
2022-10-01T04:58:02.996Z,76.90
2022-10-01T05:00:06.410Z,79.57
2022-10-01T05:02:08.027Z,72.72
2022-10-01T05:04:10.063Z,64.88
2022-10-01T05:06:11.592Z,65.90
2022-10-01T05:08:13.256Z,62.53
2022-10-01T05:10:18.763Z,112.20
2022-10-01T05:12:24.424Z,109.45
2022-10-01T05:14:26.900Z,75.53
2022-10-01T05:16:28.482Z,56.50
2022-10-01T05:18:30.452Z,59.67
2022-10-01T05:20:34.016Z,51.30
2022-10-01T05:22:35.528Z,56.45
2022-10-01T05:24:37.020Z,63.28
2022-10-01T05:26:39.003Z,62.75
2022-10-01T05:28:44.737Z,58.90
2022-10-01T05:30:46.386Z,56.58
2022-10-01T05:32:56.659Z,53.03
2022-10-01T05:34:58.265Z,49.53
2022-10-01T05:36:59.800Z,50.25
2022-10-01T05:39:01.843Z,47.20
2022-10-01T05:41:06.640Z,43.95
2022-10-01T05:43:09.163Z,44.22
2022-10-01T05:45:11.065Z,48.20
2022-10-01T05:47:13.955Z,47.78
2022-10-01T05:49:17.643Z,48.17
2022-10-01T05:51:19.374Z,50.25
2022-10-01T05:53:21.374Z,39.50
2022-10-01T05:55:23.518Z,43.58
2022-10-01T05:57:25.140Z,55.10
2022-10-01T05:59:31.606Z,41.42
2022-10-01T06:01:33.705Z,44.30
2022-10-01T06:03:36.186Z,51.65
2022-10-01T06:05:38.550Z,46.15
2022-10-01T06:07:40.040Z,40.25
2022-10-01T06:09:41.586Z,43.50
2022-10-01T06:11:43.166Z,40.45
2022-10-01T06:13:46.889Z,40.28
2022-10-01T06:15:48.478Z,36.20
2022-10-01T06:17:50.000Z,32.55
2022-10-01T06:19:54.310Z,31.85
2022-10-01T06:21:55.830Z,32.95
2022-10-01T06:23:57.490Z,29.95
2022-10-01T06:26:00.121Z,23.02
2022-10-01T06:28:02.117Z,31.55
2022-10-01T06:30:05.460Z,39.55
2022-10-01T06:32:08.086Z,25.73
2022-10-01T06:34:09.622Z,21.15
2022-10-01T06:36:11.144Z,22.65
2022-10-01T06:38:13.340Z,23.38
2022-10-01T06:40:14.918Z,25.40
2022-10-01T06:42:16.487Z,21.17
2022-10-01T06:44:19.558Z,22.60
2022-10-01T06:46:21.254Z,22.15
2022-10-01T06:48:23.031Z,24.42
2022-10-01T06:50:25.324Z,25.60
2022-10-01T06:52:45.459Z,24.08
2022-10-01T06:54:47.015Z,22.95
2022-10-01T06:56:48.550Z,22.52
2022-10-01T06:58:50.063Z,20.83
2022-10-01T07:00:52.042Z,22.55
2022-10-01T07:02:54.286Z,24.92
2022-10-01T07:04:59.693Z,23.48
2022-10-01T07:07:01.189Z,24.05
2022-10-01T07:09:02.712Z,24.90
2022-10-01T07:11:05.202Z,21.38
2022-10-01T07:13:08.830Z,22.30
2022-10-01T07:15:10.478Z,23.15
2022-10-01T07:17:12.066Z,22.15
2022-10-01T07:19:13.626Z,23.15
2022-10-01T07:21:15.137Z,23.63
2022-10-01T07:23:16.726Z,24.80
2022-10-01T07:25:18.380Z,22.48
2022-10-01T07:27:20.046Z,23.90
2022-10-01T07:29:23.919Z,21.00
2022-10-01T07:31:25.506Z,99.25
2022-10-01T07:33:27.281Z,25.63
2022-10-01T07:35:29.706Z,44.42
2022-10-01T07:37:31.206Z,28.38
2022-10-01T07:39:32.853Z,26.35
2022-10-01T07:41:34.568Z,23.42
2022-10-01T07:43:36.632Z,28.35
2022-10-01T07:45:38.219Z,43.92
2022-10-01T07:47:40.070Z,30.02
2022-10-01T07:49:41.628Z,31.73
2022-10-01T07:51:43.963Z,26.30
2022-10-01T07:53:45.881Z,25.08
2022-10-01T07:55:47.631Z,23.13
2022-10-01T07:57:57.169Z,23.05
2022-10-01T08:00:00.518Z,22.17
2022-10-01T08:02:02.241Z,24.35
2022-10-01T08:04:25.667Z,24.20
2022-10-01T08:10:57.144Z,21.73
2022-10-01T08:13:08.295Z,27.98
2022-10-01T08:15:15.998Z,24.15
2022-10-01T08:17:17.586Z,24.23
2022-10-01T08:19:19.122Z,26.83
2022-10-01T08:21:21.099Z,24.98
2022-10-01T08:23:22.703Z,39.33
2022-10-01T08:25:25.981Z,54.53
2022-10-01T08:27:28.230Z,28.38
2022-10-01T08:29:29.797Z,26.63
2022-10-01T08:31:31.685Z,25.25
2022-10-01T08:33:34.897Z,25.48
2022-10-01T08:35:39.438Z,29.60
2022-10-01T08:37:41.036Z,25.10
2022-10-01T08:39:42.786Z,25.65
2022-10-01T08:42:03.242Z,37.17
2022-10-01T08:44:06.247Z,25.27
2022-10-01T08:46:14.005Z,30.52
2022-10-01T08:48:34.055Z,32.58
2022-10-01T08:50:44.951Z,29.67
2022-10-01T08:52:52.952Z,28.42
2022-10-01T08:54:58.154Z,32.67
2022-10-01T08:57:04.812Z,26.52
2022-10-01T08:59:32.688Z,27.77
2022-10-01T09:01:34.740Z,27.60
2022-10-01T09:03:37.069Z,27.30
2022-10-01T09:05:59.489Z,28.58
2022-10-01T09:08:25.556Z,25.70
2022-10-01T09:10:41.662Z,30.13
2022-10-01T09:13:11.767Z,30.67
2022-10-01T09:15:28.490Z,30.83
2022-10-01T09:17:39.215Z,33.45
2022-10-01T09:19:55.062Z,26.30
2022-10-01T09:22:03.443Z,41.55
2022-10-01T09:24:22.448Z,37.20
2022-10-01T09:26:25.824Z,31.30
2022-10-01T09:28:32.797Z,27.35
2022-10-01T09:30:36.589Z,30.88
2022-10-01T09:32:46.017Z,28.45
2022-10-01T09:34:47.865Z,27.67
2022-10-01T09:37:05.576Z,29.20
2022-10-01T09:39:28.804Z,21.58
2022-10-01T09:41:31.673Z,28.02
2022-10-01T09:43:35.327Z,28.42
2022-10-01T09:45:37.832Z,27.35
2022-10-01T09:47:46.167Z,29.48
2022-10-01T09:49:52.400Z,27.88
2022-10-01T09:51:58.857Z,36.45
2022-10-01T09:54:11.381Z,29.42
2022-10-01T09:56:43.855Z,25.02
2022-10-01T09:58:53.894Z,26.05
2022-10-01T10:00:56.795Z,31.67
2022-10-01T10:02:58.589Z,29.92
2022-10-01T10:05:05.682Z,34.88
2022-10-01T10:07:07.481Z,28.40
2022-10-01T10:09:15.846Z,36.45
2022-10-01T10:11:23.236Z,29.42
2022-10-01T10:13:44.671Z,33.92
2022-10-01T10:15:59.450Z,38.13
2022-10-01T10:18:12.384Z,32.25
2022-10-01T10:20:38.277Z,33.90
2022-10-01T10:22:39.808Z,30.05
2022-10-01T10:24:41.601Z,33.40
2022-10-01T10:26:56.148Z,31.80
2022-10-01T10:28:58.649Z,32.00
2022-10-01T10:31:00.339Z,33.33
2022-10-01T10:33:04.923Z,35.45
2022-10-01T10:35:10.911Z,31.38
2022-10-01T10:37:15.469Z,30.92
2022-10-01T10:39:47.269Z,30.88
2022-10-01T10:41:49.663Z,26.25
2022-10-01T10:43:54.216Z,29.90
2022-10-01T10:45:56.946Z,34.55
2022-10-01T10:47:58.997Z,30.83
2022-10-01T10:50:06.126Z,29.58
2022-10-01T10:52:30.151Z,30.42
2022-10-01T10:54:37.548Z,32.78
2022-10-01T10:56:39.242Z,28.95
2022-10-01T10:58:42.682Z,30.95
2022-10-01T11:00:56.712Z,29.73
2022-10-01T11:03:15.219Z,27.95
2022-10-01T11:05:29.045Z,26.33
2022-10-01T11:07:31.435Z,27.98
2022-10-01T11:09:39.047Z,31.33
2022-10-01T11:11:53.512Z,27.77
2022-10-01T11:14:24.845Z,26.80
2022-10-01T11:17:05.820Z,28.48
2022-10-01T11:19:13.113Z,31.30
2022-10-01T11:21:41.850Z,31.65
2022-10-01T11:24:10.661Z,26.48
2022-10-01T11:26:25.454Z,27.38
2022-10-01T11:29:21.257Z,34.63
2022-10-01T11:31:51.102Z,26.55
2022-10-01T11:36:24.912Z,26.65
2022-10-01T11:38:47.129Z,25.70
2022-10-01T11:41:12.218Z,28.10
2022-10-01T11:43:24.278Z,27.42
2022-10-01T11:45:32.776Z,26.38
2022-10-01T11:47:38.171Z,27.20
2022-10-01T11:49:44.846Z,22.50
2022-10-01T11:52:08.089Z,23.92
2022-10-01T11:54:14.580Z,24.58
2022-10-01T11:56:45.144Z,22.50
2022-10-01T11:59:13.861Z,24.98
2022-10-01T12:01:24.400Z,22.75
2022-10-01T12:03:30.387Z,23.45
2022-10-01T12:05:32.425Z,25.88
2022-10-01T12:07:57.413Z,25.95
2022-10-01T12:10:14.835Z,26.17
2022-10-01T12:12:23.385Z,24.40
2022-10-01T12:14:49.942Z,22.20
2022-10-01T12:17:04.743Z,36.33
2022-10-01T12:19:17.495Z,18.58
2022-10-01T12:21:39.471Z,21.05
2022-10-01T12:23:50.608Z,21.15
2022-10-01T12:26:35.163Z,20.05
2022-10-01T12:28:59.941Z,20.88
2022-10-01T12:31:08.182Z,19.83
2022-10-01T12:33:37.356Z,19.30
2022-10-01T12:35:52.678Z,24.95
2022-10-01T12:38:15.793Z,20.63
2022-10-01T12:40:19.916Z,25.55
2022-10-01T12:42:59.887Z,18.85
2022-10-01T12:45:40.690Z,31.23
2022-10-01T12:48:00.956Z,38.40
2022-10-01T12:50:31.830Z,27.58
2022-10-01T12:52:45.419Z,26.35
2022-10-01T12:54:46.920Z,25.02
2022-10-01T12:57:04.353Z,20.20
2022-10-01T12:59:27.228Z,20.02
2022-10-01T13:02:10.143Z,21.13
2022-10-01T13:04:26.331Z,25.35
2022-10-01T13:06:41.219Z,26.40
2022-10-01T13:08:58.978Z,23.45
2022-10-01T13:11:22.647Z,21.05
2022-10-01T13:13:26.910Z,20.25
2022-10-01T13:15:35.044Z,22.25
2022-10-01T13:17:46.215Z,29.67
2022-10-01T13:19:53.105Z,30.65
2022-10-01T13:22:27.817Z,44.20
2022-10-01T13:24:37.932Z,41.20
2022-10-01T13:27:01.456Z,28.67
2022-10-01T13:29:35.127Z,26.70
2022-10-01T13:31:40.724Z,39.92
2022-10-01T13:33:42.257Z,35.35
2022-10-01T13:35:57.310Z,48.88
2022-10-01T13:37:59.538Z,38.53
2022-10-01T13:40:01.400Z,35.33
2022-10-01T13:42:05.341Z,39.78
2022-10-01T13:44:18.805Z,28.15
2022-10-01T13:46:31.177Z,28.52
2022-10-01T13:48:37.819Z,25.80
2022-10-01T13:50:40.359Z,50.53
2022-10-01T13:52:41.982Z,37.40
2022-10-01T13:54:48.010Z,44.83
2022-10-01T13:56:49.567Z,48.33
2022-10-01T13:58:53.181Z,46.42
2022-10-01T14:00:56.691Z,36.50
2022-10-01T14:03:28.896Z,29.20
2022-10-01T14:05:41.699Z,44.95
2022-10-01T14:07:45.084Z,41.72
2022-10-01T14:09:49.557Z,29.58
2022-10-01T14:12:20.776Z,62.83
2022-10-01T14:14:42.435Z,31.38
2022-10-01T14:16:45.605Z,46.78
2022-10-01T14:18:48.977Z,38.65
2022-10-01T14:21:18.702Z,57.38
2022-10-01T14:23:27.936Z,21.25
2022-10-01T14:25:36.409Z,20.25
2022-10-01T14:27:59.816Z,28.88
2022-10-01T14:30:05.204Z,47.60
2022-10-01T14:32:51.048Z,59.83
2022-10-01T14:35:04.749Z,62.92
2022-10-01T14:37:08.432Z,55.13
2022-10-01T14:39:15.881Z,52.13
2022-10-01T14:41:23.999Z,48.85
2022-10-01T14:43:30.554Z,62.95
2022-10-01T14:45:32.082Z,84.90
2022-10-01T14:47:35.974Z,37.92
2022-10-01T14:49:37.611Z,32.17
2022-10-01T14:51:54.022Z,33.10
2022-10-01T14:54:04.899Z,39.33
2022-10-01T14:56:08.538Z,32.25
2022-10-01T14:58:39.726Z,25.48
2022-10-01T15:00:49.555Z,30.13
2022-10-01T15:03:15.298Z,35.75
2022-10-01T15:05:26.099Z,22.35
2022-10-01T15:07:33.420Z,22.42
2022-10-01T15:09:35.176Z,18.80
2022-10-01T15:11:38.973Z,20.17
2022-10-01T15:13:45.030Z,29.40
2022-10-01T15:15:46.609Z,27.63
2022-10-01T15:17:49.107Z,26.58
2022-10-01T15:19:53.193Z,23.95
2022-10-01T15:21:57.060Z,21.80
2022-10-01T15:23:59.124Z,21.10
2022-10-01T15:26:01.987Z,21.23
2022-10-01T15:28:13.620Z,26.63
2022-10-01T15:30:18.340Z,25.55
2022-10-01T15:32:23.967Z,23.88
2022-10-01T15:34:27.089Z,27.92
2022-10-01T15:36:28.924Z,23.48
2022-10-01T15:38:31.852Z,26.42
2022-10-01T15:40:35.525Z,25.52
2022-10-01T15:42:37.469Z,26.63
2022-10-01T15:44:49.613Z,34.45
2022-10-01T15:46:51.349Z,34.95
2022-10-01T15:49:15.701Z,29.27
2022-10-01T15:51:25.312Z,29.15
2022-10-01T15:53:28.608Z,29.67
2022-10-01T15:55:33.856Z,30.02
2022-10-01T15:57:38.249Z,30.27
2022-10-01T15:59:40.153Z,41.88
2022-10-01T16:01:41.921Z,45.30
2022-10-01T16:04:03.316Z,35.05
2022-10-01T16:06:16.528Z,40.83
2022-10-01T16:08:24.163Z,38.17
2022-10-01T16:10:33.126Z,31.15
2022-10-01T16:12:34.689Z,37.50
2022-10-01T16:14:39.364Z,45.13
2022-10-01T16:16:41.120Z,40.97
2022-10-01T16:18:43.314Z,36.50
2022-10-01T16:20:50.500Z,34.10
2022-10-01T16:23:30.963Z,39.30
2022-10-01T16:27:43.644Z,46.72
2022-10-01T16:30:12.167Z,47.20
2022-10-01T16:32:14.925Z,46.00
2022-10-01T16:34:18.678Z,45.10
2022-10-01T16:36:21.811Z,44.45
2022-10-01T16:38:23.498Z,39.65
2022-10-01T16:40:27.630Z,37.65
2022-10-01T16:42:29.850Z,42.58
2022-10-01T16:44:31.516Z,38.60
2022-10-01T16:46:33.610Z,45.03
2022-10-01T16:48:35.244Z,42.78
2022-10-01T16:50:36.811Z,40.60
2022-10-01T16:52:38.557Z,39.58
2022-10-01T16:54:40.062Z,38.40
2022-10-01T16:56:41.708Z,38.50
2022-10-01T16:58:43.471Z,46.67
2022-10-01T17:00:45.652Z,57.22
2022-10-01T17:02:47.329Z,41.45
2022-10-01T17:04:48.845Z,50.53
2022-10-01T17:06:50.674Z,53.53
2022-10-01T17:08:52.291Z,49.78
2022-10-01T17:10:59.891Z,48.70
2022-10-01T17:13:02.107Z,44.13
2022-10-01T17:15:03.967Z,42.95
2022-10-01T17:17:05.507Z,42.67
2022-10-01T17:19:07.311Z,33.25
2022-10-01T17:21:09.128Z,39.17
2022-10-01T17:23:11.677Z,32.05
2022-10-01T17:25:15.920Z,31.17
2022-10-01T17:27:17.465Z,32.85
2022-10-01T17:29:18.962Z,34.17
2022-10-01T17:31:20.573Z,39.35
2022-10-01T17:33:22.509Z,35.78
2022-10-01T17:35:24.185Z,35.60
2022-10-01T17:37:25.694Z,34.80
2022-10-01T17:39:27.281Z,32.88
2022-10-01T17:41:28.844Z,32.92
2022-10-01T17:43:30.575Z,38.20
2022-10-01T17:45:32.332Z,48.78
2022-10-01T17:47:34.114Z,41.28
2022-10-01T17:49:35.718Z,40.00
2022-10-01T17:51:37.308Z,41.85
2022-10-01T17:53:42.582Z,42.47
2022-10-01T17:55:46.734Z,43.95
2022-10-01T17:57:48.242Z,40.35
2022-10-01T17:59:51.693Z,42.80
2022-10-01T18:01:54.503Z,63.78
2022-10-01T18:03:57.557Z,54.25
2022-10-01T18:06:05.550Z,41.40
2022-10-01T18:08:07.115Z,34.70
2022-10-01T18:10:10.921Z,30.92
2022-10-01T18:12:13.751Z,29.40
2022-10-01T18:14:15.468Z,31.40
2022-10-01T18:16:19.185Z,29.92
2022-10-01T18:20:42.640Z,29.33
2022-10-01T18:22:44.243Z,32.75
2022-10-01T18:24:45.987Z,30.17
2022-10-01T18:26:47.641Z,32.58
2022-10-01T18:28:49.193Z,34.78
2022-10-01T18:31:15.539Z,33.35
2022-10-01T18:33:17.134Z,33.53
2022-10-01T18:35:22.446Z,37.53
2022-10-01T18:37:24.927Z,39.20
2022-10-01T18:39:39.768Z,43.70
2022-10-01T18:41:41.467Z,77.32
2022-10-01T18:43:43.613Z,54.03
2022-10-01T18:46:18.719Z,22.50
2022-10-01T18:48:41.669Z,21.27
2022-10-01T18:51:08.558Z,6.82
2022-10-01T18:53:32.247Z,10.25
2022-10-01T18:55:50.902Z,12.48
2022-10-01T18:58:19.309Z,10.85
2022-10-01T19:00:23.523Z,6.20
2022-10-01T19:02:38.037Z,6.45
2022-10-01T19:05:18.059Z,5.45
2022-10-01T19:07:39.561Z,7.50
2022-10-01T19:09:57.970Z,6.60
2022-10-01T19:12:27.598Z,6.70
2022-10-01T19:14:40.974Z,5.65
2022-10-01T19:17:00.676Z,7.47
2022-10-01T19:19:21.613Z,17.95
2022-10-01T19:21:38.363Z,12.50
2022-10-01T19:24:12.463Z,10.60
2022-10-01T19:26:24.342Z,10.68
2022-10-01T19:28:42.814Z,48.13
2022-10-01T19:31:04.538Z,22.00
2022-10-01T19:33:09.899Z,16.00
2022-10-01T19:35:21.496Z,13.30
2022-10-01T19:37:37.662Z,22.55
2022-10-01T19:39:41.806Z,17.50
2022-10-01T19:41:49.862Z,15.30
2022-10-01T19:43:59.168Z,19.50
2022-10-01T19:46:13.029Z,25.02
2022-10-01T19:48:19.967Z,20.23
2022-10-01T19:50:26.437Z,20.83
2022-10-01T19:52:30.710Z,23.35
2022-10-01T19:54:34.825Z,23.10
2022-10-01T19:56:38.388Z,23.73
2022-10-01T19:58:40.172Z,31.58
2022-10-01T20:00:41.961Z,45.75
2022-10-01T20:02:58.003Z,17.17
2022-10-01T20:05:07.018Z,32.63
2022-10-01T20:07:16.938Z,18.77
2022-10-01T20:11:50.069Z,23.40
2022-10-01T20:14:06.509Z,19.42
2022-10-01T20:16:40.909Z,21.40
2022-10-01T20:19:03.270Z,19.23
2022-10-01T20:21:23.192Z,15.10
2022-10-01T20:26:09.113Z,28.85
2022-10-01T20:28:21.807Z,20.70
2022-10-01T20:30:23.887Z,12.27
2022-10-01T20:32:57.512Z,15.98
2022-10-01T20:35:11.256Z,13.77
2022-10-01T20:37:35.193Z,18.85
2022-10-01T20:40:25.233Z,11.77
2022-10-01T20:42:39.559Z,16.23
2022-10-01T20:44:41.432Z,17.67
2022-10-01T20:46:46.253Z,17.80
2022-10-01T20:48:52.186Z,10.25
2022-10-01T20:50:58.478Z,17.13
2022-10-01T20:53:32.466Z,12.75
2022-10-01T20:55:39.240Z,11.98
2022-10-01T20:57:43.589Z,16.67
2022-10-01T20:59:51.363Z,16.95
2022-10-01T21:02:02.570Z,15.68
2022-10-01T21:04:11.284Z,13.65
2022-10-01T21:06:18.925Z,9.70
2022-10-01T21:08:27.610Z,14.18
2022-10-01T21:10:44.917Z,9.48
2022-10-01T21:12:55.709Z,8.93
2022-10-01T21:14:57.322Z,7.22
2022-10-01T21:17:33.761Z,7.05
2022-10-01T21:19:54.129Z,5.75
2022-10-01T21:22:10.874Z,6.63
2022-10-01T21:24:25.161Z,6.90
2022-10-01T21:26:54.437Z,6.93
2022-10-01T21:29:25.965Z,6.55
2022-10-01T21:31:45.967Z,6.88
2022-10-01T21:33:59.394Z,5.72
2022-10-01T21:36:11.753Z,8.27
2022-10-01T21:38:19.282Z,12.60
2022-10-01T21:40:32.992Z,6.50
2022-10-01T21:43:01.343Z,6.50
2022-10-01T21:45:22.241Z,6.00
2022-10-01T21:47:42.277Z,7.63
2022-10-01T21:50:16.777Z,7.35
2022-10-01T21:52:31.440Z,5.43
2022-10-01T21:54:35.983Z,8.10
2022-10-01T21:57:13.031Z,6.53
2022-10-01T21:59:49.859Z,5.32
2022-10-01T22:02:04.818Z,6.03
2022-10-01T22:04:19.542Z,5.13
2022-10-01T22:06:33.128Z,5.72
2022-10-01T22:08:59.781Z,6.63
2022-10-01T22:11:04.290Z,7.70
2022-10-01T22:13:15.158Z,7.20
2022-10-01T22:15:42.593Z,7.88
2022-10-01T22:17:45.433Z,6.80
2022-10-01T22:19:50.356Z,7.45
2022-10-01T22:21:56.519Z,7.43
2022-10-01T22:24:04.839Z,7.40
2022-10-01T22:26:11.713Z,7.88
2022-10-01T22:28:21.045Z,6.72
2022-10-01T22:30:25.933Z,6.97
2022-10-01T22:32:31.004Z,6.53
2022-10-01T22:34:35.177Z,7.03
2022-10-01T22:36:46.645Z,7.15
2022-10-01T22:38:54.978Z,8.10
2022-10-01T22:41:08.050Z,7.53
2022-10-01T22:43:11.222Z,6.90
2022-10-01T22:45:16.810Z,7.20
2022-10-01T22:47:33.426Z,8.85
2022-10-01T22:50:03.889Z,7.40
2022-10-01T22:52:28.346Z,6.72
2022-10-01T22:54:55.277Z,6.78
2022-10-01T22:57:18.893Z,6.55
2022-10-01T22:59:32.602Z,7.60
2022-10-01T23:01:44.014Z,7.55
2022-10-01T23:04:17.795Z,6.88
2022-10-01T23:06:25.334Z,8.00
2022-10-01T23:08:39.608Z,7.28
2022-10-01T23:10:54.960Z,6.85
2022-10-01T23:13:20.833Z,6.07
2022-10-01T23:15:35.944Z,6.20
2022-10-01T23:17:45.124Z,6.78
2022-10-01T23:20:09.696Z,7.20
2022-10-01T23:22:40.433Z,7.10
2022-10-01T23:25:04.884Z,7.65
2022-10-01T23:27:44.130Z,7.53
2022-10-01T23:30:04.977Z,7.00
2022-10-01T23:32:13.582Z,7.82
2022-10-01T23:34:29.577Z,6.47
2022-10-01T23:36:36.203Z,6.70
2022-10-01T23:38:44.513Z,6.32
2022-10-01T23:40:48.432Z,6.82
2022-10-01T23:42:59.591Z,7.05
2022-10-01T23:45:18.761Z,6.28
2022-10-01T23:47:26.331Z,6.57
2022-10-01T23:49:31.051Z,5.97
2022-10-01T23:51:43.537Z,6.80
2022-10-01T23:54:02.889Z,6.72
2022-10-01T23:56:44.291Z,6.13
2022-10-01T23:58:50.619Z,7.03
